sensor_id;sensor_type;location;lat;lon;timestamp;temperature;humidity
44435;DHT22;30138;20.964;105.830;2022-12-16T00:04:04;21.20;83.80
44435;DHT22;30138;20.964;105.830;2022-12-16T00:09:11;21.20;83.70
44435;DHT22;30138;20.964;105.830;2022-12-16T00:14:19;21.20;83.60
44435;DHT22;30138;20.964;105.830;2022-12-16T00:19:28;21.20;83.60
44435;DHT22;30138;20.964;105.830;2022-12-16T00:24:36;21.20;83.80
44435;DHT22;30138;20.964;105.830;2022-12-16T00:29:44;21.20;83.60
44435;DHT22;30138;20.964;105.830;2022-12-16T00:34:54;21.10;83.60
44435;DHT22;30138;20.964;105.830;2022-12-16T00:40:02;21.10;83.60
44435;DHT22;30138;20.964;105.830;2022-12-16T00:45:11;21.10;83.60
44435;DHT22;30138;20.964;105.830;2022-12-16T00:50:20;21.10;83.60
44435;DHT22;30138;20.964;105.830;2022-12-16T00:55:28;21.10;83.40
44435;DHT22;30138;20.964;105.830;2022-12-16T01:00:36;21.10;83.30
44435;DHT22;30138;20.964;105.830;2022-12-16T01:05:46;21.10;83.10
44435;DHT22;30138;20.964;105.830;2022-12-16T01:10:54;21.10;83.10
44435;DHT22;30138;20.964;105.830;2022-12-16T01:16:02;21.10;82.90
44435;DHT22;30138;20.964;105.830;2022-12-16T01:21:14;21.10;82.80
44435;DHT22;30138;20.964;105.830;2022-12-16T01:26:22;21.10;82.90
44435;DHT22;30138;20.964;105.830;2022-12-16T01:31:33;21.10;82.80
44435;DHT22;30138;20.964;105.830;2022-12-16T01:36:42;21.10;82.70
44435;DHT22;30138;20.964;105.830;2022-12-16T01:41:50;21.30;82.30
44435;DHT22;30138;20.964;105.830;2022-12-16T01:47:00;21.50;81.60
44435;DHT22;30138;20.964;105.830;2022-12-16T01:52:14;21.70;81.00
44435;DHT22;30138;20.964;105.830;2022-12-16T01:57:26;21.90;80.50
44435;DHT22;30138;20.964;105.830;2022-12-16T02:02:34;22.10;80.20
44435;DHT22;30138;20.964;105.830;2022-12-16T02:07:48;22.20;79.80
44435;DHT22;30138;20.964;105.830;2022-12-16T02:13:08;22.30;79.70
44435;DHT22;30138;20.964;105.830;2022-12-16T02:18:30;22.40;79.40
44435;DHT22;30138;20.964;105.830;2022-12-16T02:30:00;22.60;79.70
44435;DHT22;30138;20.964;105.830;2022-12-16T02:35:19;22.70;78.80
44435;DHT22;30138;20.964;105.830;2022-12-16T02:40:37;22.70;78.80
44435;DHT22;30138;20.964;105.830;2022-12-16T02:45:48;22.80;78.70
44435;DHT22;30138;20.964;105.830;2022-12-16T02:50:58;22.80;78.70
44435;DHT22;30138;20.964;105.830;2022-12-16T02:56:13;22.80;78.90
44435;DHT22;30138;20.964;105.830;2022-12-16T03:01:33;22.80;78.80
44435;DHT22;30138;20.964;105.830;2022-12-16T03:06:48;22.90;78.90
44435;DHT22;30138;20.964;105.830;2022-12-16T03:11:57;22.90;79.00
44435;DHT22;30138;20.964;105.830;2022-12-16T03:17:06;22.80;78.90
44435;DHT22;30138;20.964;105.830;2022-12-16T03:22:19;22.80;79.00
44435;DHT22;30138;20.964;105.830;2022-12-16T03:27:30;22.80;79.20
44435;DHT22;30138;20.964;105.830;2022-12-16T03:32:45;22.80;79.40
44435;DHT22;30138;20.964;105.830;2022-12-16T03:37:57;22.80;79.50
44435;DHT22;30138;20.964;105.830;2022-12-16T03:43:07;22.80;79.70
44435;DHT22;30138;20.964;105.830;2022-12-16T03:48:21;22.80;79.80
44435;DHT22;30138;20.964;105.830;2022-12-16T03:53:31;22.80;79.90
44435;DHT22;30138;20.964;105.830;2022-12-16T03:58:39;22.80;80.00
44435;DHT22;30138;20.964;105.830;2022-12-16T04:03:46;22.80;80.00
44435;DHT22;30138;20.964;105.830;2022-12-16T04:08:56;22.80;80.10
44435;DHT22;30138;20.964;105.830;2022-12-16T04:14:04;22.90;80.30
44435;DHT22;30138;20.964;105.830;2022-12-16T04:19:32;22.90;80.30
44435;DHT22;30138;20.964;105.830;2022-12-16T04:25:03;22.90;80.40
44435;DHT22;30138;20.964;105.830;2022-12-16T04:30:14;22.90;80.50
44435;DHT22;30138;20.964;105.830;2022-12-16T04:35:27;22.90;80.50
44435;DHT22;30138;20.964;105.830;2022-12-16T04:40:53;22.90;80.60
44435;DHT22;30138;20.964;105.830;2022-12-16T04:46:18;23.00;80.70
44435;DHT22;30138;20.964;105.830;2022-12-16T04:51:41;23.00;80.70
44435;DHT22;30138;20.964;105.830;2022-12-16T04:57:07;23.00;80.60
44435;DHT22;30138;20.964;105.830;2022-12-16T05:02:34;23.10;80.60
44435;DHT22;30138;20.964;105.830;2022-12-16T05:07:57;23.10;80.90
44435;DHT22;30138;20.964;105.830;2022-12-16T05:13:36;23.20;81.00
44435;DHT22;30138;20.964;105.830;2022-12-16T05:19:00;23.20;80.90
44435;DHT22;30138;20.964;105.830;2022-12-16T05:24:23;23.20;80.70
44435;DHT22;30138;20.964;105.830;2022-12-16T05:29:49;23.30;80.60
44435;DHT22;30138;20.964;105.830;2022-12-16T05:35:13;23.30;80.40
44435;DHT22;30138;20.964;105.830;2022-12-16T05:40:37;23.30;80.30
44435;DHT22;30138;20.964;105.830;2022-12-16T05:46:03;23.40;80.30
44435;DHT22;30138;20.964;105.830;2022-12-16T05:51:27;23.40;80.20
44435;DHT22;30138;20.964;105.830;2022-12-16T05:56:51;23.40;80.20
44435;DHT22;30138;20.964;105.830;2022-12-16T06:02:17;23.50;80.30
44435;DHT22;30138;20.964;105.830;2022-12-16T06:07:41;23.50;80.20
44435;DHT22;30138;20.964;105.830;2022-12-16T06:13:23;23.50;80.20
44435;DHT22;30138;20.964;105.830;2022-12-16T06:18:50;23.60;80.10
44435;DHT22;30138;20.964;105.830;2022-12-16T06:24:13;23.60;80.00
44435;DHT22;30138;20.964;105.830;2022-12-16T06:29:37;23.60;80.70
44435;DHT22;30138;20.964;105.830;2022-12-16T06:35:04;23.60;79.80
44435;DHT22;30138;20.964;105.830;2022-12-16T06:40:27;23.70;80.00
44435;DHT22;30138;20.964;105.830;2022-12-16T06:45:51;23.70;79.80
44435;DHT22;30138;20.964;105.830;2022-12-16T06:51:17;23.70;79.60
44435;DHT22;30138;20.964;105.830;2022-12-16T06:56:40;23.80;79.60
44435;DHT22;30138;20.964;105.830;2022-12-16T07:02:04;23.80;79.70
44435;DHT22;30138;20.964;105.830;2022-12-16T07:07:30;23.80;79.60
44435;DHT22;30138;20.964;105.830;2022-12-16T07:12:58;23.90;79.10
44435;DHT22;30138;20.964;105.830;2022-12-16T07:18:22;23.90;79.20
44435;DHT22;30138;20.964;105.830;2022-12-16T07:23:48;23.90;79.00
44435;DHT22;30138;20.964;105.830;2022-12-16T07:29:11;23.90;78.80
44435;DHT22;30138;20.964;105.830;2022-12-16T07:34:35;23.90;78.50
44435;DHT22;30138;20.964;105.830;2022-12-16T07:40:00;24.00;78.30
44435;DHT22;30138;20.964;105.830;2022-12-16T07:45:24;24.00;78.30
44435;DHT22;30138;20.964;105.830;2022-12-16T07:50:48;24.00;78.10
44435;DHT22;30138;20.964;105.830;2022-12-16T07:56:13;24.00;78.00
44435;DHT22;30138;20.964;105.830;2022-12-16T08:01:37;24.10;77.90
44435;DHT22;30138;20.964;105.830;2022-12-16T08:07:00;24.10;78.00
44435;DHT22;30138;20.964;105.830;2022-12-16T08:12:26;24.10;77.90
44435;DHT22;30138;20.964;105.830;2022-12-16T08:17:50;24.00;77.60
44435;DHT22;30138;20.964;105.830;2022-12-16T08:23:14;24.00;77.50
44435;DHT22;30138;20.964;105.830;2022-12-16T08:28:43;24.00;77.60
44435;DHT22;30138;20.964;105.830;2022-12-16T08:34:06;24.00;78.90
44435;DHT22;30138;20.964;105.830;2022-12-16T08:39:30;24.00;79.70
44435;DHT22;30138;20.964;105.830;2022-12-16T08:44:55;24.00;79.70
44435;DHT22;30138;20.964;105.830;2022-12-16T08:50:18;24.00;80.00
44435;DHT22;30138;20.964;105.830;2022-12-16T08:55:42;23.90;79.50
44435;DHT22;30138;20.964;105.830;2022-12-16T09:01:07;23.90;80.10
44435;DHT22;30138;20.964;105.830;2022-12-16T09:06:30;23.90;79.80
44435;DHT22;30138;20.964;105.830;2022-12-16T09:11:55;23.80;79.90
44435;DHT22;30138;20.964;105.830;2022-12-16T09:17:20;23.80;80.50
44435;DHT22;30138;20.964;105.830;2022-12-16T09:22:44;23.80;80.90
44435;DHT22;30138;20.964;105.830;2022-12-16T09:28:08;23.80;81.20
44435;DHT22;30138;20.964;105.830;2022-12-16T09:33:34;23.70;81.20
44435;DHT22;30138;20.964;105.830;2022-12-16T09:38:57;23.70;81.30
44435;DHT22;30138;20.964;105.830;2022-12-16T09:44:27;23.70;81.30
44435;DHT22;30138;20.964;105.830;2022-12-16T09:50:17;23.60;81.40
44435;DHT22;30138;20.964;105.830;2022-12-16T09:55:44;23.60;81.30
44435;DHT22;30138;20.964;105.830;2022-12-16T10:01:10;23.60;81.40
44435;DHT22;30138;20.964;105.830;2022-12-16T10:06:40;23.60;81.80
44435;DHT22;30138;20.964;105.830;2022-12-16T10:12:12;23.50;81.80
44435;DHT22;30138;20.964;105.830;2022-12-16T10:17:42;23.50;81.70
44435;DHT22;30138;20.964;105.830;2022-12-16T10:23:15;23.50;82.00
44435;DHT22;30138;20.964;105.830;2022-12-16T10:28:45;23.50;82.10
44435;DHT22;30138;20.964;105.830;2022-12-16T10:34:13;23.50;82.20
44435;DHT22;30138;20.964;105.830;2022-12-16T10:39:41;23.50;82.40
44435;DHT22;30138;20.964;105.830;2022-12-16T10:45:16;23.40;82.30
44435;DHT22;30138;20.964;105.830;2022-12-16T10:50:42;23.40;81.90
44435;DHT22;30138;20.964;105.830;2022-12-16T10:56:17;23.40;81.70
44435;DHT22;30138;20.964;105.830;2022-12-16T11:01:59;23.40;82.20
44435;DHT22;30138;20.964;105.830;2022-12-16T11:07:27;23.40;82.20
44435;DHT22;30138;20.964;105.830;2022-12-16T11:12:56;23.40;81.90
44435;DHT22;30138;20.964;105.830;2022-12-16T11:18:49;23.40;81.80
44435;DHT22;30138;20.964;105.830;2022-12-16T11:24:15;23.40;81.50
44435;DHT22;30138;20.964;105.830;2022-12-16T11:29:52;23.40;81.60
44435;DHT22;30138;20.964;105.830;2022-12-16T11:35:19;23.40;81.70
44435;DHT22;30138;20.964;105.830;2022-12-16T11:40:45;23.30;81.50
44435;DHT22;30138;20.964;105.830;2022-12-16T11:46:14;23.30;81.70
44435;DHT22;30138;20.964;105.830;2022-12-16T11:51:42;23.30;81.80
44435;DHT22;30138;20.964;105.830;2022-12-16T11:57:18;23.30;82.00
44435;DHT22;30138;20.964;105.830;2022-12-16T12:02:51;23.30;81.90
44435;DHT22;30138;20.964;105.830;2022-12-16T12:08:20;23.30;82.00
44435;DHT22;30138;20.964;105.830;2022-12-16T12:13:52;23.30;82.20
44435;DHT22;30138;20.964;105.830;2022-12-16T12:19:30;23.30;82.00
44435;DHT22;30138;20.964;105.830;2022-12-16T12:25:06;23.30;82.10
44435;DHT22;30138;20.964;105.830;2022-12-16T12:30:37;23.30;82.10
44435;DHT22;30138;20.964;105.830;2022-12-16T12:36:10;23.30;82.20
44435;DHT22;30138;20.964;105.830;2022-12-16T12:41:53;23.30;82.10
44435;DHT22;30138;20.964;105.830;2022-12-16T12:47:23;23.30;81.90
44435;DHT22;30138;20.964;105.830;2022-12-16T12:53:06;23.30;81.90
44435;DHT22;30138;20.964;105.830;2022-12-16T12:58:36;23.30;82.00
44435;DHT22;30138;20.964;105.830;2022-12-16T13:04:02;23.30;82.00
44435;DHT22;30138;20.964;105.830;2022-12-16T13:09:33;23.30;82.10
44435;DHT22;30138;20.964;105.830;2022-12-16T13:15:02;23.30;82.20
44435;DHT22;30138;20.964;105.830;2022-12-16T13:20:37;23.30;82.20
44435;DHT22;30138;20.964;105.830;2022-12-16T13:26:06;23.30;82.00
44435;DHT22;30138;20.964;105.830;2022-12-16T13:31:31;23.20;82.90
44435;DHT22;30138;20.964;105.830;2022-12-16T13:36:55;23.20;82.20
44435;DHT22;30138;20.964;105.830;2022-12-16T13:42:51;23.20;82.20
44435;DHT22;30138;20.964;105.830;2022-12-16T13:48:44;23.20;82.40
44435;DHT22;30138;20.964;105.830;2022-12-16T13:54:08;23.20;82.60
44435;DHT22;30138;20.964;105.830;2022-12-16T13:59:37;23.20;83.20
44435;DHT22;30138;20.964;105.830;2022-12-16T14:05:18;23.20;83.50
44435;DHT22;30138;20.964;105.830;2022-12-16T14:10:45;23.20;83.80
44435;DHT22;30138;20.964;105.830;2022-12-16T14:16:24;23.20;83.80
44435;DHT22;30138;20.964;105.830;2022-12-16T14:21:55;23.20;83.90
44435;DHT22;30138;20.964;105.830;2022-12-16T14:27:22;23.20;84.30
44435;DHT22;30138;20.964;105.830;2022-12-16T14:32:48;23.20;84.40
44435;DHT22;30138;20.964;105.830;2022-12-16T14:38:23;23.20;84.70
44435;DHT22;30138;20.964;105.830;2022-12-16T14:43:48;23.20;84.90
44435;DHT22;30138;20.964;105.830;2022-12-16T14:49:20;23.10;85.00
44435;DHT22;30138;20.964;105.830;2022-12-16T14:54:45;23.10;85.20
44435;DHT22;30138;20.964;105.830;2022-12-16T15:00:13;23.10;85.30
44435;DHT22;30138;20.964;105.830;2022-12-16T15:05:41;23.10;85.40
44435;DHT22;30138;20.964;105.830;2022-12-16T15:11:09;23.10;85.50
44435;DHT22;30138;20.964;105.830;2022-12-16T15:16:37;23.10;85.70
44435;DHT22;30138;20.964;105.830;2022-12-16T15:22:03;23.00;85.30
44435;DHT22;30138;20.964;105.830;2022-12-16T15:27:32;23.10;85.10
44435;DHT22;30138;20.964;105.830;2022-12-16T15:32:57;23.00;84.90
44435;DHT22;30138;20.964;105.830;2022-12-16T15:38:28;23.00;84.80
44435;DHT22;30138;20.964;105.830;2022-12-16T15:43:52;23.10;84.70
44435;DHT22;30138;20.964;105.830;2022-12-16T15:49:19;23.00;84.30
44435;DHT22;30138;20.964;105.830;2022-12-16T15:54:54;23.10;84.20
44435;DHT22;30138;20.964;105.830;2022-12-16T16:00:21;23.00;83.90
44435;DHT22;30138;20.964;105.830;2022-12-16T16:05:45;23.10;84.00
44435;DHT22;30138;20.964;105.830;2022-12-16T16:11:11;23.00;82.90
44435;DHT22;30138;20.964;105.830;2022-12-16T16:16:36;23.10;81.80
44435;DHT22;30138;20.964;105.830;2022-12-16T16:22:16;23.00;81.00
44435;DHT22;30138;20.964;105.830;2022-12-16T16:27:41;23.00;80.50
44435;DHT22;30138;20.964;105.830;2022-12-16T16:33:05;23.10;80.20
44435;DHT22;30138;20.964;105.830;2022-12-16T16:38:29;23.00;79.80
44435;DHT22;30138;20.964;105.830;2022-12-16T16:43:54;23.00;79.50
44435;DHT22;30138;20.964;105.830;2022-12-16T16:49:22;23.00;79.40
44435;DHT22;30138;20.964;105.830;2022-12-16T16:54:46;23.00;79.00
44435;DHT22;30138;20.964;105.830;2022-12-16T17:00:12;22.90;78.80
44435;DHT22;30138;20.964;105.830;2022-12-16T17:05:37;22.90;78.80
44435;DHT22;30138;20.964;105.830;2022-12-16T17:11:00;22.90;78.60
44435;DHT22;30138;20.964;105.830;2022-12-16T17:16:26;23.00;78.40
44435;DHT22;30138;20.964;105.830;2022-12-16T17:21:50;22.90;78.20
44435;DHT22;30138;20.964;105.830;2022-12-16T17:27:15;22.90;78.20
44435;DHT22;30138;20.964;105.830;2022-12-16T17:32:41;22.90;78.00
44435;DHT22;30138;20.964;105.830;2022-12-16T17:38:06;22.90;77.90
44435;DHT22;30138;20.964;105.830;2022-12-16T17:43:35;22.90;77.90
44435;DHT22;30138;20.964;105.830;2022-12-16T17:49:00;22.90;78.40
44435;DHT22;30138;20.964;105.830;2022-12-16T17:54:24;22.90;78.20
44435;DHT22;30138;20.964;105.830;2022-12-16T17:59:47;22.90;77.90
44435;DHT22;30138;20.964;105.830;2022-12-16T18:05:17;22.90;77.70
44435;DHT22;30138;20.964;105.830;2022-12-16T18:10:41;22.90;77.80
44435;DHT22;30138;20.964;105.830;2022-12-16T18:16:05;22.80;77.50
44435;DHT22;30138;20.964;105.830;2022-12-16T18:21:30;22.80;77.60
44435;DHT22;30138;20.964;105.830;2022-12-16T18:26:54;22.80;77.40
44435;DHT22;30138;20.964;105.830;2022-12-16T18:32:17;22.80;77.00
44435;DHT22;30138;20.964;105.830;2022-12-16T18:37:42;22.80;76.80
44435;DHT22;30138;20.964;105.830;2022-12-16T18:43:06;22.80;76.70
44435;DHT22;30138;20.964;105.830;2022-12-16T18:48:29;22.80;76.30
44435;DHT22;30138;20.964;105.830;2022-12-16T18:53:55;22.80;76.00
44435;DHT22;30138;20.964;105.830;2022-12-16T18:59:15;22.80;75.70
44435;DHT22;30138;20.964;105.830;2022-12-16T19:04:38;22.80;75.40
44435;DHT22;30138;20.964;105.830;2022-12-16T19:10:01;22.80;75.10
44435;DHT22;30138;20.964;105.830;2022-12-16T19:15:25;22.80;74.90
44435;DHT22;30138;20.964;105.830;2022-12-16T19:20:52;22.70;74.50
44435;DHT22;30138;20.964;105.830;2022-12-16T19:26:17;22.70;74.20
44435;DHT22;30138;20.964;105.830;2022-12-16T19:31:40;22.70;74.00
44435;DHT22;30138;20.964;105.830;2022-12-16T19:37:04;22.70;73.80
44435;DHT22;30138;20.964;105.830;2022-12-16T19:42:30;22.70;73.60
44435;DHT22;30138;20.964;105.830;2022-12-16T19:48:01;22.70;73.20
44435;DHT22;30138;20.964;105.830;2022-12-16T19:53:25;22.70;73.00
44435;DHT22;30138;20.964;105.830;2022-12-16T19:58:51;22.70;72.90
44435;DHT22;30138;20.964;105.830;2022-12-16T20:04:15;22.70;72.60
44435;DHT22;30138;20.964;105.830;2022-12-16T20:09:40;22.60;72.40
44435;DHT22;30138;20.964;105.830;2022-12-16T20:15:06;22.70;72.00
44435;DHT22;30138;20.964;105.830;2022-12-16T20:20:30;22.70;71.80
44435;DHT22;30138;20.964;105.830;2022-12-16T20:25:55;22.60;71.60
44435;DHT22;30138;20.964;105.830;2022-12-16T20:31:21;22.60;71.30
44435;DHT22;30138;20.964;105.830;2022-12-16T20:36:45;22.60;71.10
44435;DHT22;30138;20.964;105.830;2022-12-16T20:42:09;22.60;70.80
44435;DHT22;30138;20.964;105.830;2022-12-16T20:47:34;22.60;70.80
44435;DHT22;30138;20.964;105.830;2022-12-16T20:52:58;22.60;70.50
44435;DHT22;30138;20.964;105.830;2022-12-16T20:58:23;22.60;70.40
44435;DHT22;30138;20.964;105.830;2022-12-16T21:03:49;22.60;70.10
44435;DHT22;30138;20.964;105.830;2022-12-16T21:09:14;22.50;69.70
44435;DHT22;30138;20.964;105.830;2022-12-16T21:14:37;22.50;69.60
44435;DHT22;30138;20.964;105.830;2022-12-16T21:20:04;22.50;69.50
44435;DHT22;30138;20.964;105.830;2022-12-16T21:25:29;22.50;69.20
44435;DHT22;30138;20.964;105.830;2022-12-16T21:31:02;22.50;68.90
44435;DHT22;30138;20.964;105.830;2022-12-16T21:36:27;22.50;68.60
44435;DHT22;30138;20.964;105.830;2022-12-16T21:41:51;22.50;68.30
44435;DHT22;30138;20.964;105.830;2022-12-16T21:47:23;22.40;68.00
44435;DHT22;30138;20.964;105.830;2022-12-16T21:52:49;22.40;67.70
44435;DHT22;30138;20.964;105.830;2022-12-16T21:58:13;22.40;67.90
44435;DHT22;30138;20.964;105.830;2022-12-16T22:03:36;22.40;67.50
44435;DHT22;30138;20.964;105.830;2022-12-16T22:09:02;22.40;67.50
44435;DHT22;30138;20.964;105.830;2022-12-16T22:14:26;22.40;67.30
44435;DHT22;30138;20.964;105.830;2022-12-16T22:19:50;22.40;67.10
44435;DHT22;30138;20.964;105.830;2022-12-16T22:25:15;22.40;66.80
44435;DHT22;30138;20.964;105.830;2022-12-16T22:30:39;22.40;66.90
44435;DHT22;30138;20.964;105.830;2022-12-16T22:36:03;22.30;66.50
44435;DHT22;30138;20.964;105.830;2022-12-16T22:41:29;22.30;66.40
44435;DHT22;30138;20.964;105.830;2022-12-16T22:47:01;22.30;66.30
44435;DHT22;30138;20.964;105.830;2022-12-16T22:52:30;22.30;66.50
44435;DHT22;30138;20.964;105.830;2022-12-16T22:57:55;22.30;66.50
44435;DHT22;30138;20.964;105.830;2022-12-16T23:03:19;22.30;66.40
44435;DHT22;30138;20.964;105.830;2022-12-16T23:08:42;22.30;66.40
44435;DHT22;30138;20.964;105.830;2022-12-16T23:14:08;22.30;66.60
44435;DHT22;30138;20.964;105.830;2022-12-16T23:19:32;22.30;66.60
44435;DHT22;30138;20.964;105.830;2022-12-16T23:24:55;22.20;66.40
44435;DHT22;30138;20.964;105.830;2022-12-16T23:30:20;22.20;66.40
44435;DHT22;30138;20.964;105.830;2022-12-16T23:35:40;22.20;66.20
44435;DHT22;30138;20.964;105.830;2022-12-16T23:41:03;22.20;66.00
44435;DHT22;30138;20.964;105.830;2022-12-16T23:46:28;22.20;66.30
44435;DHT22;30138;20.964;105.830;2022-12-16T23:51:52;22.20;66.50
44435;DHT22;30138;20.964;105.830;2022-12-16T23:57:16;22.20;66.80
